Country
Station

 

Weather  for  Miami, Miami International Airport  -  United States    United States

  
32 °C (90 °F)
    
 
 

Current METAR for Miami, Miami International Airport is :

KMIA 191653Z 11009KT 10SM SCT034 BKN080 BKN250 32/23 A3010 RMK AO2 SLP193 T03220228

 

This is a report for Miami, Miami International Airport - United States.
 
The report was made 28 minutes ago, at 16:53 UTC .
The wind was blowing at a speed of 4.6 meters per second (10.4 miles per hour) from east/southeast (110°).
 
The temperature was 32 °C (90 °F), with a dew-point at 23 °C (73 °F).
The temperature felt like 37 °C (99 °F).
 
The atmospheric pressure was 1019 hPa (30.10 inHg).
The relative humidity was 59.1%.
 
There were scattered clouds at a height of 1036 meters (3400 feet), broken clouds at a height of 2438 meters (8000 feet) and broken clouds at a height of 7620 meters (25000 feet).
 
The overall visibility was 16.1 kilometers (10.0 miles).
 

 
 
 
 

Country :   A   B   C   D   E   F   G   H   I   J   K   L   M   N   O   P   Q   R   S   T   U   V   W   Y   Z

 

Site Info  |  Disclaimer  |  Credits  |  Privacy
Contact us  |  Add to favorites
© 2013-2019 METARs - All rights reserved